createdAt,value
2019-03-27T00:01:48.921Z,100251.16
2019-03-27T00:04:20.487Z,100247.50
2019-03-27T00:06:50.932Z,100246.85
2019-03-27T00:09:21.071Z,100254.56
2019-03-27T00:11:51.706Z,100244.97
2019-03-27T00:16:55.969Z,100251.67
2019-03-27T00:19:26.206Z,100242.80
2019-03-27T00:21:56.968Z,100248.70
2019-03-27T00:24:26.983Z,100249.20
2019-03-27T00:26:56.997Z,100249.98
2019-03-27T00:29:27.152Z,100244.20
2019-03-27T00:31:57.813Z,100244.42
2019-03-27T00:34:27.905Z,100243.06
2019-03-27T00:36:58.303Z,100246.73
2019-03-27T00:39:28.804Z,100248.91
2019-03-27T00:41:59.031Z,100242.59
2019-03-27T00:44:29.603Z,100243.50
2019-03-27T00:46:59.504Z,100250.39
2019-03-27T00:49:29.547Z,100248.17
2019-03-27T00:51:59.930Z,100244.50
2019-03-27T00:54:30.555Z,100241.84
2019-03-27T00:57:00.966Z,100243.34
2019-03-27T00:59:31.744Z,100230.39
2019-03-27T01:02:00.947Z,100233.20
2019-03-27T01:04:31.307Z,100235.97
2019-03-27T01:07:01.964Z,100232.80
2019-03-27T01:09:32.518Z,100228.47
2019-03-27T01:12:02.948Z,100231.96
2019-03-27T01:14:33.558Z,100231.96
2019-03-27T01:17:03.986Z,100231.96
2019-03-27T01:19:35.468Z,100234.88
2019-03-27T01:22:05.890Z,100223.39
2019-03-27T01:24:36.299Z,100223.39
2019-03-27T01:27:06.753Z,100233.30
2019-03-27T01:29:35.896Z,100231.81
2019-03-27T01:32:06.286Z,100239.58
2019-03-27T01:34:36.759Z,100239.80
2019-03-27T01:37:07.082Z,100237.88
2019-03-27T01:39:37.527Z,100229.45
2019-03-27T01:42:08.188Z,100216.83
2019-03-27T01:44:38.719Z,100216.83
2019-03-27T01:47:08.989Z,100216.26
2019-03-27T01:49:39.144Z,100217.81
2019-03-27T01:52:10.272Z,100217.35
2019-03-27T01:54:40.891Z,100224.02
2019-03-27T01:57:11.066Z,100222.10
2019-03-27T01:59:41.560Z,100218.52
2019-03-27T02:02:12.576Z,100211.77
2019-03-27T02:04:43.128Z,100224.43
2019-03-27T02:07:13.619Z,100224.43
2019-03-27T02:09:43.938Z,100211.77
2019-03-27T02:12:14.082Z,100211.77
2019-03-27T02:14:44.566Z,100224.27
2019-03-27T02:17:14.863Z,100212.51
2019-03-27T02:19:45.030Z,100212.51
2019-03-27T02:22:15.911Z,100218.97
2019-03-27T02:24:46.302Z,100218.31
2019-03-27T02:27:16.722Z,100222.23
2019-03-27T02:29:45.941Z,100229.02
2019-03-27T02:32:20.266Z,100220.31
2019-03-27T02:34:48.090Z,100217.22
2019-03-27T02:37:18.576Z,100219.45
2019-03-27T02:39:48.955Z,100226.34
2019-03-27T02:42:19.096Z,100215.91
2019-03-27T02:44:49.936Z,100221.42
2019-03-27T02:47:20.296Z,100222.94
2019-03-27T02:49:50.737Z,100218.44
2019-03-27T02:52:20.944Z,100224.58
2019-03-27T02:54:51.046Z,100216.88
2019-03-27T02:59:11.965Z,100227.09
2019-03-27T03:01:42.405Z,100229.89
2019-03-27T03:04:12.936Z,100230.69
2019-03-27T03:06:43.050Z,100228.75
2019-03-27T03:09:13.615Z,100232.16
2019-03-27T03:11:43.958Z,100235.08
2019-03-27T03:14:13.945Z,100235.08
2019-03-27T03:16:44.430Z,100230.02
2019-03-27T03:19:14.877Z,100230.86
2019-03-27T03:21:46.577Z,100226.91
2019-03-27T03:24:16.865Z,100225.56
2019-03-27T03:26:50.600Z,100228.23
2019-03-27T03:29:19.530Z,100223.14
2019-03-27T03:31:49.922Z,100219.20
2019-03-27T03:34:20.047Z,100207.79
2019-03-27T03:36:51.755Z,100226.20
2019-03-27T03:39:21.101Z,100227.04
2019-03-27T03:41:51.487Z,100223.34
2019-03-27T03:44:21.913Z,100221.03
2019-03-27T03:46:59.471Z,100221.03
2019-03-27T03:49:24.033Z,100232.17
2019-03-27T03:51:54.735Z,100232.61
2019-03-27T03:54:24.472Z,100235.37
2019-03-27T03:56:57.704Z,100232.52
2019-03-27T03:59:29.019Z,100231.56
2019-03-27T04:02:03.867Z,100230.24
2019-03-27T04:04:36.918Z,100232.56
2019-03-27T04:07:07.017Z,100235.56
2019-03-27T04:09:37.569Z,100237.15
2019-03-27T04:12:07.808Z,100232.16
2019-03-27T04:14:37.938Z,100237.78
2019-03-27T04:17:17.102Z,100244.94
2019-03-27T04:19:40.425Z,100235.86
2019-03-27T04:22:10.934Z,100242.97
2019-03-27T04:24:41.318Z,100239.86
2019-03-27T04:27:11.866Z,100244.78
2019-03-27T04:29:42.404Z,100242.41
2019-03-27T04:32:13.833Z,100242.56
2019-03-27T04:34:47.189Z,100238.95
2019-03-27T04:37:18.118Z,100237.00
2019-03-27T04:39:48.884Z,100233.45
2019-03-27T04:42:21.315Z,100232.84
2019-03-27T04:44:52.060Z,100229.48
2019-03-27T04:47:32.185Z,100236.00
2019-03-27T04:49:56.521Z,100226.23
2019-03-27T04:52:27.537Z,100226.23
2019-03-27T04:54:58.051Z,100231.07
2019-03-27T04:57:29.425Z,100235.50
2019-03-27T05:00:00.046Z,100233.96
2019-03-27T05:02:31.348Z,100246.11
2019-03-27T05:05:03.808Z,100249.31
2019-03-27T05:07:34.393Z,100246.17
2019-03-27T05:10:05.510Z,100243.42
2019-03-27T05:12:38.426Z,100243.23
2019-03-27T05:15:06.993Z,100255.68
2019-03-27T05:17:45.761Z,100260.93
2019-03-27T05:20:10.651Z,100261.26
2019-03-27T05:22:40.893Z,100262.16
2019-03-27T05:25:12.003Z,100262.16
2019-03-27T05:27:42.738Z,100268.52
2019-03-27T05:30:17.726Z,100272.58
2019-03-27T05:32:46.872Z,100270.55
2019-03-27T05:35:18.306Z,100277.71
2019-03-27T05:37:49.312Z,100283.27
2019-03-27T05:40:19.958Z,100279.78
2019-03-27T05:43:00.494Z,100281.73
2019-03-27T05:45:23.993Z,100280.03
2019-03-27T05:47:59.862Z,100280.81
2019-03-27T05:50:27.449Z,100293.02
2019-03-27T05:52:57.959Z,100289.88
2019-03-27T05:55:28.979Z,100297.97
2019-03-27T05:58:00.150Z,100300.14
2019-03-27T06:00:33.411Z,100306.25
2019-03-27T06:03:03.674Z,100309.59
2019-03-27T06:05:34.212Z,100307.30
2019-03-27T06:08:05.152Z,100307.30
2019-03-27T06:10:36.093Z,100301.58
2019-03-27T06:13:07.535Z,100298.02
2019-03-27T06:15:38.506Z,100298.36
2019-03-27T06:18:13.248Z,100309.31
2019-03-27T06:20:40.899Z,100309.31
2019-03-27T06:23:12.443Z,100304.69
2019-03-27T06:25:42.779Z,100307.84
2019-03-27T06:28:12.954Z,100305.66
2019-03-27T06:30:44.065Z,100305.67
2019-03-27T06:33:15.291Z,100311.66
2019-03-27T06:35:45.822Z,100305.72
2019-03-27T06:38:16.898Z,100309.99
2019-03-27T06:40:47.759Z,100305.14
2019-03-27T06:43:18.819Z,100301.82
2019-03-27T06:45:49.008Z,100307.38
2019-03-27T06:48:26.146Z,100306.36
2019-03-27T06:50:53.044Z,100303.57
2019-03-27T06:53:24.105Z,100310.48
2019-03-27T06:55:55.595Z,100304.86
2019-03-27T06:58:26.722Z,100313.03
2019-03-27T07:00:56.815Z,100311.44
2019-03-27T07:03:27.287Z,100317.17
2019-03-27T07:05:58.468Z,100319.84
2019-03-27T07:08:29.147Z,100320.02
2019-03-27T07:11:00.437Z,100324.86
2019-03-27T07:13:31.625Z,100324.58
2019-03-27T07:16:01.454Z,100330.47
2019-03-27T07:18:39.971Z,100330.47
2019-03-27T07:21:04.325Z,100331.50
2019-03-27T07:23:35.491Z,100332.61
2019-03-27T07:26:06.649Z,100326.62
2019-03-27T07:28:36.123Z,100326.62
2019-03-27T07:31:06.958Z,100336.53
2019-03-27T07:33:38.288Z,100335.73
2019-03-27T07:36:09.451Z,100341.78
2019-03-27T07:38:41.289Z,100339.08
2019-03-27T07:41:12.290Z,100344.06
2019-03-27T07:43:43.502Z,100345.40
2019-03-27T07:46:14.646Z,100350.27
2019-03-27T07:48:53.720Z,100350.27
2019-03-27T07:51:19.298Z,100342.55
2019-03-27T07:53:51.291Z,100346.00
2019-03-27T07:56:21.731Z,100355.67
2019-03-27T07:58:51.270Z,100351.56
2019-03-27T08:01:22.322Z,100362.22
2019-03-27T08:03:53.448Z,100362.22
2019-03-27T08:06:23.783Z,100355.00
2019-03-27T08:08:53.298Z,100356.61
2019-03-27T08:11:24.177Z,100359.55
2019-03-27T08:13:54.763Z,100363.19
2019-03-27T08:16:25.026Z,100361.69
2019-03-27T08:19:06.846Z,100357.31
2019-03-27T08:21:31.220Z,100352.82
2019-03-27T08:24:02.296Z,100354.16
2019-03-27T08:26:32.821Z,100363.80
2019-03-27T08:29:04.290Z,100366.77
2019-03-27T08:31:35.325Z,100366.21
2019-03-27T08:34:06.819Z,100363.44
2019-03-27T08:36:37.975Z,100365.01
2019-03-27T08:39:09.967Z,100369.44
2019-03-27T08:41:41.464Z,100361.63
2019-03-27T08:44:11.948Z,100361.12
2019-03-27T08:46:42.819Z,100363.95
2019-03-27T08:49:21.903Z,100366.91
2019-03-27T08:51:45.270Z,100370.13
2019-03-27T08:54:16.142Z,100371.59
2019-03-27T08:56:46.955Z,100369.75
2019-03-27T08:59:17.771Z,100372.09
2019-03-27T09:01:48.518Z,100376.24
2019-03-27T09:04:19.198Z,100384.12
2019-03-27T09:06:50.102Z,100383.61
2019-03-27T09:09:20.738Z,100394.22
2019-03-27T09:11:51.968Z,100400.97
2019-03-27T09:14:25.511Z,100395.45
2019-03-27T09:16:56.328Z,100378.33
2019-03-27T09:19:35.694Z,100378.33
2019-03-27T09:21:59.979Z,100391.44
2019-03-27T09:24:30.946Z,100393.14
2019-03-27T09:27:01.943Z,100390.63
2019-03-27T09:29:33.306Z,100397.16
2019-03-27T09:32:04.326Z,100394.95
2019-03-27T09:34:35.024Z,100389.68
2019-03-27T09:37:06.306Z,100389.13
2019-03-27T09:39:36.821Z,100382.08
2019-03-27T09:42:08.372Z,100391.23
2019-03-27T09:44:38.994Z,100393.00
2019-03-27T09:47:10.053Z,100396.37
2019-03-27T09:49:49.528Z,100387.34
2019-03-27T09:52:14.334Z,100386.30
2019-03-27T09:54:44.950Z,100389.03
2019-03-27T09:57:15.652Z,100376.84
2019-03-27T09:59:45.018Z,100378.99
2019-03-27T10:02:16.369Z,100378.99
2019-03-27T10:04:47.545Z,100375.65
2019-03-27T10:07:18.650Z,100377.61
2019-03-27T10:09:50.360Z,100370.53
2019-03-27T10:12:21.037Z,100370.56
2019-03-27T10:14:52.078Z,100372.62
2019-03-27T10:17:23.022Z,100373.71
2019-03-27T10:20:03.324Z,100361.60
2019-03-27T10:22:26.345Z,100366.73
2019-03-27T10:24:57.146Z,100362.52
2019-03-27T10:27:27.588Z,100370.52
2019-03-27T10:29:57.951Z,100370.05
2019-03-27T10:32:28.099Z,100370.05
2019-03-27T10:34:58.865Z,100372.02
2019-03-27T10:37:28.950Z,100370.04
2019-03-27T10:39:59.600Z,100361.91
2019-03-27T10:42:29.981Z,100367.25
2019-03-27T10:45:00.031Z,100367.25
2019-03-27T10:47:30.570Z,100367.42
2019-03-27T10:50:00.921Z,100366.03
2019-03-27T10:52:31.106Z,100358.58
2019-03-27T10:55:01.744Z,100367.78
2019-03-27T10:57:32.024Z,100362.05
2019-03-27T11:00:02.994Z,100366.64
2019-03-27T11:02:34.839Z,100370.15
2019-03-27T11:05:05.459Z,100362.49
2019-03-27T11:07:36.309Z,100358.50
2019-03-27T11:10:07.777Z,100354.93
2019-03-27T11:12:38.389Z,100358.61
2019-03-27T11:15:10.762Z,100347.09
2019-03-27T11:17:41.235Z,100358.53
2019-03-27T11:20:12.521Z,100360.52
2019-03-27T11:22:43.537Z,100360.98
2019-03-27T11:25:17.940Z,100360.98
2019-03-27T11:27:49.000Z,100360.18
2019-03-27T11:30:25.516Z,100359.34
2019-03-27T11:32:57.795Z,100358.20
2019-03-27T11:35:29.294Z,100351.05
2019-03-27T11:38:01.300Z,100352.00
2019-03-27T11:40:32.895Z,100354.02
2019-03-27T11:43:05.129Z,100348.80
2019-03-27T11:45:37.816Z,100348.30
2019-03-27T11:48:09.498Z,100342.56
2019-03-27T11:50:45.309Z,100342.44
2019-03-27T11:53:12.634Z,100344.05
2019-03-27T11:55:42.611Z,100329.82
2019-03-27T11:58:18.107Z,100329.82
2019-03-27T12:00:54.799Z,100331.94
2019-03-27T12:03:22.617Z,100335.37
2019-03-27T12:05:52.967Z,100334.83
2019-03-27T12:08:23.869Z,100335.22
2019-03-27T12:10:54.367Z,100335.14
2019-03-27T12:13:25.432Z,100337.36
2019-03-27T12:15:56.363Z,100330.58
2019-03-27T12:18:27.053Z,100332.02
2019-03-27T12:20:59.783Z,100330.64
2019-03-27T12:23:30.765Z,100320.99
2019-03-27T12:26:02.059Z,100314.36
2019-03-27T12:28:32.966Z,100319.14
2019-03-27T12:31:03.969Z,100322.64
2019-03-27T12:33:35.312Z,100323.56
2019-03-27T12:36:06.491Z,100327.84
2019-03-27T12:38:38.933Z,100329.28
2019-03-27T12:41:10.319Z,100324.58
2019-03-27T12:43:42.521Z,100326.77
2019-03-27T12:46:13.695Z,100338.72
2019-03-27T12:48:43.649Z,100338.72
2019-03-27T12:51:14.295Z,100327.16
2019-03-27T12:53:44.939Z,100327.16
2019-03-27T12:56:15.726Z,100330.06
2019-03-27T12:58:46.305Z,100325.98
2019-03-27T13:01:17.803Z,100328.20
2019-03-27T13:03:48.817Z,100327.78
2019-03-27T13:06:20.299Z,100324.28
2019-03-27T13:08:52.077Z,100316.00
2019-03-27T13:11:23.301Z,100318.79
2019-03-27T13:13:54.073Z,100318.81
2019-03-27T13:16:24.932Z,100314.41
2019-03-27T13:18:56.374Z,100316.52
2019-03-27T13:21:27.118Z,100307.09
2019-03-27T13:23:58.488Z,100308.08
2019-03-27T13:26:29.595Z,100297.89
2019-03-27T13:29:01.566Z,100302.25
2019-03-27T13:31:32.297Z,100302.25
2019-03-27T13:34:03.311Z,100304.06
2019-03-27T13:36:36.536Z,100302.41
2019-03-27T13:39:09.315Z,100302.22
2019-03-27T13:41:40.572Z,100293.37
2019-03-27T13:44:11.596Z,100293.37
2019-03-27T13:46:41.281Z,100297.27
2019-03-27T13:49:12.538Z,100299.05
2019-03-27T13:51:43.978Z,100299.81
2019-03-27T13:54:14.738Z,100300.33
2019-03-27T13:56:45.459Z,100296.70
2019-03-27T13:59:16.498Z,100298.98
2019-03-27T14:01:47.190Z,100298.43
2019-03-27T14:04:18.094Z,100295.44
2019-03-27T14:06:49.660Z,100299.41
2019-03-27T14:09:19.454Z,100292.00
2019-03-27T14:11:50.514Z,100293.25
2019-03-27T14:14:21.625Z,100277.72
2019-03-27T14:16:52.827Z,100277.72
2019-03-27T14:19:23.482Z,100283.36
2019-03-27T14:21:55.213Z,100286.48
2019-03-27T14:24:26.456Z,100288.25
2019-03-27T14:26:56.995Z,100285.48
2019-03-27T14:29:27.562Z,100290.53
2019-03-27T14:31:58.605Z,100274.16
2019-03-27T14:34:29.309Z,100278.91
2019-03-27T14:37:00.423Z,100278.91
2019-03-27T14:39:31.602Z,100274.07
2019-03-27T14:42:03.275Z,100270.42
2019-03-27T14:44:36.417Z,100278.20
2019-03-27T14:47:08.293Z,100266.03
2019-03-27T14:49:39.599Z,100266.03
2019-03-27T14:52:09.797Z,100275.77
2019-03-27T14:54:41.483Z,100271.61
2019-03-27T14:57:13.474Z,100274.56
2019-03-27T14:59:43.521Z,100279.23
2019-03-27T15:02:15.295Z,100274.18
2019-03-27T15:04:46.291Z,100274.18
2019-03-27T15:07:17.578Z,100284.87
2019-03-27T15:09:48.078Z,100288.41
2019-03-27T15:12:19.286Z,100288.41
2019-03-27T15:14:50.451Z,100290.78
2019-03-27T15:17:21.290Z,100282.66
2019-03-27T15:19:51.968Z,100285.88
2019-03-27T15:22:23.034Z,100287.94
2019-03-27T15:24:54.292Z,100288.56
2019-03-27T15:27:25.055Z,100289.56
2019-03-27T15:29:56.039Z,100290.17
2019-03-27T15:32:27.780Z,100288.72
2019-03-27T15:34:57.390Z,100289.72
2019-03-27T15:37:28.497Z,100281.81
2019-03-27T15:40:00.478Z,100282.02
2019-03-27T15:42:31.327Z,100287.98
2019-03-27T15:45:02.310Z,100287.98
2019-03-27T15:47:34.466Z,100288.64
2019-03-27T15:50:05.608Z,100285.33
2019-03-27T15:52:37.093Z,100279.16
2019-03-27T15:55:08.825Z,100279.16
2019-03-27T15:57:40.412Z,100282.31
2019-03-27T16:00:11.246Z,100282.07
2019-03-27T16:02:42.895Z,100279.64
2019-03-27T16:05:14.299Z,100279.64
2019-03-27T16:07:46.772Z,100274.53
2019-03-27T16:10:19.515Z,100278.17
2019-03-27T16:12:49.446Z,100282.25
2019-03-27T16:15:20.516Z,100281.20
2019-03-27T16:17:52.745Z,100277.77
2019-03-27T16:20:24.126Z,100277.77
2019-03-27T16:22:55.977Z,100288.56
2019-03-27T16:25:27.571Z,100282.38
2019-03-27T16:27:58.685Z,100289.13
2019-03-27T16:30:28.555Z,100278.39
2019-03-27T16:32:59.102Z,100280.22
2019-03-27T16:35:29.809Z,100280.22
2019-03-27T16:38:00.350Z,100283.70
2019-03-27T16:40:49.097Z,100289.90
2019-03-27T16:43:19.986Z,100289.64
2019-03-27T16:45:51.022Z,100284.23
2019-03-27T16:48:21.753Z,100286.31
2019-03-27T16:50:52.030Z,100297.21
2019-03-27T16:53:22.977Z,100291.78
2019-03-27T16:55:53.103Z,100292.78
2019-03-27T16:58:23.677Z,100301.94
2019-03-27T17:00:52.962Z,100294.02
2019-03-27T17:03:23.510Z,100295.95
2019-03-27T17:05:54.198Z,100307.05
2019-03-27T17:08:24.024Z,100307.05
2019-03-27T17:10:54.855Z,100305.02
2019-03-27T17:13:26.535Z,100311.78
2019-03-27T17:15:57.407Z,100310.33
2019-03-27T17:18:28.281Z,100319.05
2019-03-27T17:20:58.974Z,100318.34
2019-03-27T17:23:30.491Z,100320.73
2019-03-27T17:26:01.201Z,100318.97
2019-03-27T17:28:33.015Z,100323.67
2019-03-27T17:31:03.932Z,100326.31
2019-03-27T17:33:34.468Z,100327.85
2019-03-27T17:36:04.271Z,100326.17
2019-03-27T17:38:34.253Z,100330.07
2019-03-27T17:41:04.851Z,100331.92
2019-03-27T17:43:35.209Z,100328.86
2019-03-27T17:46:05.975Z,100323.86
2019-03-27T17:48:36.895Z,100337.50
2019-03-27T17:51:07.979Z,100342.95
2019-03-27T17:53:39.053Z,100335.39
2019-03-27T17:56:10.026Z,100337.86
2019-03-27T17:58:40.949Z,100341.17
2019-03-27T18:01:11.927Z,100339.68
2019-03-27T18:03:43.007Z,100347.07
2019-03-27T18:06:13.445Z,100345.44
2019-03-27T18:08:44.120Z,100341.28
2019-03-27T18:11:15.106Z,100341.28
2019-03-27T18:13:46.110Z,100351.00
2019-03-27T18:16:17.428Z,100355.95
2019-03-27T18:18:47.943Z,100355.91
2019-03-27T18:21:21.286Z,100357.34
2019-03-27T18:23:52.069Z,100364.49
2019-03-27T18:26:23.349Z,100364.49
2019-03-27T18:28:53.982Z,100363.67
2019-03-27T18:31:25.518Z,100369.89
2019-03-27T18:33:56.314Z,100368.92
2019-03-27T18:36:27.333Z,100368.73
2019-03-27T18:38:58.051Z,100368.73
2019-03-27T18:41:44.012Z,100386.30
2019-03-27T18:44:15.102Z,100387.00
2019-03-27T18:46:46.705Z,100390.56
2019-03-27T18:49:15.976Z,100394.98
2019-03-27T18:51:47.072Z,100394.98
2019-03-27T18:54:18.639Z,100395.61
2019-03-27T18:56:48.255Z,100405.23
2019-03-27T18:59:19.084Z,100401.23
2019-03-27T19:01:50.008Z,100407.11
2019-03-27T19:04:21.326Z,100410.30
2019-03-27T19:06:52.063Z,100417.56
2019-03-27T19:09:22.810Z,100416.45
2019-03-27T19:11:52.963Z,100420.28
2019-03-27T19:14:23.397Z,100419.71
2019-03-27T19:16:54.302Z,100425.59
2019-03-27T19:19:25.165Z,100417.94
2019-03-27T19:21:57.795Z,100421.35
2019-03-27T19:24:28.575Z,100425.66
2019-03-27T19:26:59.422Z,100424.59
2019-03-27T19:29:30.110Z,100424.59
2019-03-27T19:32:00.974Z,100431.52
2019-03-27T19:34:31.974Z,100429.51
2019-03-27T19:37:03.908Z,100433.72
2019-03-27T19:39:34.985Z,100435.23
2019-03-27T19:42:05.993Z,100436.51
2019-03-27T19:44:37.290Z,100432.81
2019-03-27T19:47:07.995Z,100438.17
2019-03-27T19:49:38.834Z,100437.24
2019-03-27T19:52:10.373Z,100441.95
2019-03-27T19:54:41.159Z,100434.90
2019-03-27T19:57:12.530Z,100431.20
2019-03-27T19:59:44.659Z,100437.61
2019-03-27T20:02:15.042Z,100437.86
2019-03-27T20:04:46.410Z,100439.94
2019-03-27T20:07:17.696Z,100441.63
2019-03-27T20:09:48.911Z,100442.67
2019-03-27T20:12:20.520Z,100442.67
2019-03-27T20:14:51.513Z,100451.73
2019-03-27T20:17:22.579Z,100451.73
2019-03-27T20:19:53.915Z,100450.56
2019-03-27T20:22:25.010Z,100450.70
2019-03-27T20:24:56.085Z,100456.86
2019-03-27T20:27:27.320Z,100456.52
2019-03-27T20:29:58.543Z,100458.28
2019-03-27T20:32:29.823Z,100453.30
2019-03-27T20:35:00.797Z,100453.30
2019-03-27T20:37:32.002Z,100456.64
2019-03-27T20:40:03.154Z,100451.70
2019-03-27T20:42:34.164Z,100460.42
2019-03-27T20:45:08.923Z,100453.67
2019-03-27T20:47:40.271Z,100454.58
2019-03-27T20:50:12.981Z,100452.44
2019-03-27T20:52:44.591Z,100459.84
2019-03-27T20:55:29.563Z,100457.48
2019-03-27T20:57:51.584Z,100453.03
2019-03-27T21:00:24.628Z,100455.10
2019-03-27T21:02:57.560Z,100460.66
2019-03-27T21:05:27.652Z,100458.96
2019-03-27T21:07:59.628Z,100460.42
2019-03-27T21:10:29.294Z,100464.29
2019-03-27T21:13:00.343Z,100465.45
2019-03-27T21:15:31.306Z,100468.94
2019-03-27T21:18:02.552Z,100468.16
2019-03-27T21:20:33.560Z,100472.25
2019-03-27T21:23:04.561Z,100472.25
2019-03-27T21:25:34.661Z,100470.39
2019-03-27T21:28:04.060Z,100467.53
2019-03-27T21:30:35.175Z,100466.55
2019-03-27T21:33:07.918Z,100467.28
2019-03-27T21:35:39.126Z,100464.20
2019-03-27T21:38:10.450Z,100472.41
2019-03-27T21:40:41.305Z,100473.47
2019-03-27T21:43:12.327Z,100473.47
2019-03-27T21:45:43.659Z,100475.91
2019-03-27T21:48:14.558Z,100466.91
2019-03-27T21:50:45.323Z,100466.91
2019-03-27T21:53:15.949Z,100473.30
2019-03-27T21:55:46.805Z,100470.69
2019-03-27T21:58:18.511Z,100469.45
2019-03-27T22:00:49.069Z,100475.45
2019-03-27T22:03:20.536Z,100475.14
2019-03-27T22:05:51.362Z,100481.17
2019-03-27T22:08:22.810Z,100483.75
2019-03-27T22:10:53.463Z,100480.14
2019-03-27T22:13:24.061Z,100486.18
2019-03-27T22:15:55.006Z,100487.87
2019-03-27T22:18:26.010Z,100485.08
2019-03-27T22:20:56.780Z,100482.52
2019-03-27T22:23:26.439Z,100487.44
2019-03-27T22:25:57.271Z,100486.00
2019-03-27T22:28:28.306Z,100483.69
2019-03-27T22:30:59.005Z,100490.56
2019-03-27T22:33:47.054Z,100494.61
2019-03-27T22:36:18.139Z,100492.26
2019-03-27T22:38:49.118Z,100493.45
2019-03-27T22:41:19.812Z,100490.67
2019-03-27T22:43:49.289Z,100494.69
2019-03-27T22:46:21.034Z,100492.09
2019-03-27T22:48:53.030Z,100492.75
2019-03-27T22:51:24.917Z,100491.88
2019-03-27T22:53:55.750Z,100505.02
2019-03-27T22:56:25.303Z,100499.83
2019-03-27T22:58:56.844Z,100501.25
2019-03-27T23:01:46.461Z,100498.66
2019-03-27T23:04:17.006Z,100502.78
2019-03-27T23:06:47.670Z,100502.94
2019-03-27T23:09:18.308Z,100496.30
2019-03-27T23:11:49.330Z,100490.16
2019-03-27T23:14:19.993Z,100500.43
2019-03-27T23:16:50.737Z,100493.12
2019-03-27T23:19:21.007Z,100503.44
2019-03-27T23:21:52.293Z,100502.14
2019-03-27T23:24:23.060Z,100510.55
2019-03-27T23:26:53.841Z,100510.36
2019-03-27T23:29:25.009Z,100499.55
2019-03-27T23:31:55.933Z,100506.67
2019-03-27T23:34:26.330Z,100499.87
2019-03-27T23:36:57.428Z,100500.36
2019-03-27T23:39:28.346Z,100503.65
2019-03-27T23:41:58.950Z,100498.45
2019-03-27T23:44:30.897Z,100504.66
2019-03-27T23:47:01.375Z,100505.12
2019-03-27T23:49:32.317Z,100504.06
2019-03-27T23:52:02.989Z,100504.66
2019-03-27T23:54:34.299Z,100504.02
2019-03-27T23:57:05.019Z,100503.62
2019-03-27T23:59:35.060Z,100502.34
